createdAt,value
2023-02-25T00:01:41.674Z,9.57
2023-02-25T00:04:09.513Z,9.70
2023-02-25T00:06:36.045Z,9.57
2023-02-25T00:09:02.646Z,10.25
2023-02-25T00:11:30.271Z,11.38
2023-02-25T00:13:57.543Z,10.27
2023-02-25T00:16:25.544Z,9.93
2023-02-25T00:18:57.366Z,10.88
2023-02-25T00:21:24.966Z,10.43
2023-02-25T00:23:53.614Z,10.95
2023-02-25T00:26:21.056Z,9.20
2023-02-25T00:28:48.469Z,9.85
2023-02-25T00:31:21.371Z,11.05
2023-02-25T00:33:49.167Z,9.23
2023-02-25T00:36:21.253Z,11.18
2023-02-25T00:38:49.463Z,10.68
2023-02-25T00:41:18.311Z,9.85
2023-02-25T00:43:51.063Z,10.65
2023-02-25T00:46:17.909Z,9.93
2023-02-25T00:48:44.574Z,10.32
2023-02-25T00:51:20.355Z,12.10
2023-02-25T00:53:47.190Z,11.80
2023-02-25T00:56:15.943Z,11.18
2023-02-25T00:58:45.092Z,11.90
2023-02-25T01:01:24.868Z,11.63
2023-02-25T01:03:53.504Z,10.93
2023-02-25T01:06:20.730Z,10.60
2023-02-25T01:08:47.597Z,10.52
2023-02-25T01:11:27.787Z,10.95
2023-02-25T01:13:55.969Z,11.30
2023-02-25T01:16:26.441Z,10.25
2023-02-25T01:18:58.152Z,11.25
2023-02-25T01:21:30.547Z,10.02
2023-02-25T01:24:00.630Z,9.77
2023-02-25T01:26:29.217Z,9.40
2023-02-25T01:28:56.439Z,9.32
2023-02-25T01:31:25.074Z,10.15
2023-02-25T01:33:51.761Z,9.48
2023-02-25T01:36:18.317Z,9.65
2023-02-25T01:38:44.854Z,9.68
2023-02-25T01:41:11.430Z,9.82
2023-02-25T01:43:37.956Z,9.38
2023-02-25T01:46:04.540Z,9.65
2023-02-25T01:48:35.449Z,10.00
2023-02-25T01:51:06.881Z,9.88
2023-02-25T01:53:37.293Z,10.98
2023-02-25T01:56:04.860Z,9.85
2023-02-25T01:58:33.641Z,9.98
2023-02-25T02:01:00.977Z,10.05
2023-02-25T02:03:32.512Z,10.30
2023-02-25T02:06:13.401Z,10.65
2023-02-25T02:08:42.329Z,10.53
2023-02-25T02:11:09.032Z,9.65
2023-02-25T02:13:39.227Z,9.47
2023-02-25T02:16:21.410Z,9.48
2023-02-25T02:18:54.173Z,9.10
2023-02-25T02:22:00.558Z,9.70
2023-02-25T02:24:51.249Z,9.27
2023-02-25T02:27:26.355Z,10.18
2023-02-25T02:30:26.301Z,9.67
2023-02-25T02:33:14.169Z,9.70
2023-02-25T02:35:41.089Z,9.98
2023-02-25T02:38:19.891Z,10.13
2023-02-25T02:40:58.413Z,9.30
2023-02-25T02:43:46.859Z,9.60
2023-02-25T02:46:26.490Z,9.02
2023-02-25T02:49:01.619Z,8.70
2023-02-25T02:52:03.721Z,9.73
2023-02-25T02:54:35.739Z,9.40
2023-02-25T02:57:03.554Z,9.73
2023-02-25T02:59:38.638Z,10.57
2023-02-25T03:02:17.630Z,9.45
2023-02-25T03:04:48.725Z,10.07
2023-02-25T03:07:18.009Z,9.20
2023-02-25T03:09:51.881Z,9.57
2023-02-25T03:12:18.656Z,8.98
2023-02-25T03:14:45.554Z,9.27
2023-02-25T03:17:27.704Z,9.27
2023-02-25T03:20:08.121Z,9.10
2023-02-25T03:22:39.382Z,10.50
2023-02-25T03:25:09.980Z,9.83
2023-02-25T03:27:43.316Z,9.40
2023-02-25T03:30:18.437Z,9.23
2023-02-25T03:32:55.047Z,9.50
2023-02-25T03:35:24.189Z,10.77
2023-02-25T03:37:56.256Z,10.63
2023-02-25T03:40:24.199Z,11.30
2023-02-25T03:42:57.369Z,11.20
2023-02-25T03:45:24.861Z,9.17
2023-02-25T03:47:51.951Z,9.57
2023-02-25T03:50:25.971Z,10.50
2023-02-25T03:52:52.655Z,10.68
2023-02-25T03:55:20.048Z,10.20
2023-02-25T03:57:49.517Z,10.30
2023-02-25T04:00:19.297Z,10.53
2023-02-25T04:02:47.478Z,10.80
2023-02-25T04:05:16.107Z,10.67
2023-02-25T04:07:42.835Z,9.80
2023-02-25T04:10:12.655Z,10.17
2023-02-25T04:12:40.388Z,11.10
2023-02-25T04:15:07.902Z,10.17
2023-02-25T04:17:35.535Z,11.97
2023-02-25T04:20:02.465Z,11.80
2023-02-25T04:22:29.022Z,11.60
2023-02-25T04:24:55.561Z,10.83
2023-02-25T04:27:22.095Z,11.37
2023-02-25T04:29:48.635Z,11.73
2023-02-25T04:32:15.383Z,12.33
2023-02-25T04:34:42.029Z,12.03
2023-02-25T04:37:10.010Z,11.70
2023-02-25T04:39:37.309Z,10.87
2023-02-25T04:42:04.075Z,10.23
2023-02-25T04:44:31.097Z,10.53
2023-02-25T04:46:57.666Z,10.07
2023-02-25T04:49:24.504Z,9.53
2023-02-25T04:51:51.744Z,11.83
2023-02-25T04:54:20.184Z,11.40
2023-02-25T04:56:47.357Z,11.10
2023-02-25T04:59:14.614Z,10.77
2023-02-25T05:01:41.491Z,11.60
2023-02-25T05:04:08.652Z,10.87
2023-02-25T05:06:35.235Z,12.93
2023-02-25T05:09:02.232Z,13.00
2023-02-25T05:11:30.751Z,14.50
2023-02-25T05:13:57.419Z,14.10
2023-02-25T05:16:25.267Z,14.90
2023-02-25T05:18:53.148Z,13.97
2023-02-25T05:21:22.796Z,14.93
2023-02-25T05:23:51.690Z,14.77
2023-02-25T05:26:23.258Z,15.93
2023-02-25T05:28:55.375Z,15.37
2023-02-25T05:31:23.591Z,16.47
2023-02-25T05:33:50.524Z,17.47
2023-02-25T05:36:17.586Z,17.93
2023-02-25T05:38:45.144Z,19.80
2023-02-25T05:41:12.453Z,19.47
2023-02-25T05:43:39.885Z,18.93
2023-02-25T05:46:11.790Z,21.27
2023-02-25T05:48:43.067Z,20.63
2023-02-25T05:51:18.787Z,20.27
2023-02-25T05:53:48.039Z,21.10
2023-02-25T05:56:17.642Z,21.10
2023-02-25T05:58:44.433Z,17.83
2023-02-25T06:01:13.917Z,17.90
2023-02-25T06:03:45.894Z,16.50
2023-02-25T06:06:13.668Z,16.37
2023-02-25T06:08:41.942Z,18.47
2023-02-25T06:11:09.040Z,16.70
2023-02-25T06:13:35.663Z,16.23
2023-02-25T06:16:05.938Z,15.50
2023-02-25T06:18:36.772Z,15.13
2023-02-25T06:21:05.556Z,14.00
2023-02-25T06:23:33.025Z,13.73
2023-02-25T06:25:59.665Z,12.60
2023-02-25T06:28:26.322Z,12.20
2023-02-25T06:30:52.909Z,11.97
2023-02-25T06:33:19.421Z,12.03
2023-02-25T06:35:46.096Z,11.97
2023-02-25T06:38:12.659Z,11.40
2023-02-25T06:40:39.214Z,12.07
2023-02-25T06:43:05.897Z,13.07
2023-02-25T06:45:32.493Z,11.67
2023-02-25T06:47:59.056Z,14.97
2023-02-25T06:50:25.545Z,13.37
2023-02-25T06:52:52.106Z,14.20
2023-02-25T06:55:19.458Z,12.87
2023-02-25T06:57:46.072Z,14.33
2023-02-25T07:00:13.077Z,14.87
2023-02-25T07:02:40.096Z,14.47
2023-02-25T07:05:06.951Z,14.50
2023-02-25T07:07:33.513Z,14.07
2023-02-25T07:10:00.205Z,12.97
2023-02-25T07:12:26.726Z,14.43
2023-02-25T07:14:53.325Z,14.80
2023-02-25T07:17:20.411Z,13.87
2023-02-25T07:19:46.916Z,15.13
2023-02-25T07:22:16.480Z,14.13
2023-02-25T07:24:43.963Z,14.27
2023-02-25T07:27:13.027Z,13.67
2023-02-25T07:29:40.373Z,15.00
2023-02-25T07:32:09.195Z,14.00
2023-02-25T07:34:37.916Z,14.30
2023-02-25T07:37:04.451Z,15.13
2023-02-25T07:39:31.021Z,15.07
2023-02-25T07:41:57.563Z,14.57
2023-02-25T07:44:24.148Z,14.93
2023-02-25T07:46:50.760Z,14.37
2023-02-25T07:49:17.260Z,15.77
2023-02-25T07:51:43.789Z,14.70
2023-02-25T07:54:10.361Z,14.90
2023-02-25T07:56:36.934Z,15.30
2023-02-25T07:59:03.507Z,16.23
2023-02-25T08:01:33.176Z,16.37
2023-02-25T08:04:04.234Z,17.70
2023-02-25T08:06:32.094Z,15.60
2023-02-25T08:08:58.674Z,19.27
2023-02-25T08:11:26.928Z,17.07
2023-02-25T08:13:53.892Z,19.90
2023-02-25T08:16:21.554Z,18.13
2023-02-25T08:18:48.414Z,16.13
2023-02-25T08:21:18.143Z,16.60
2023-02-25T08:23:45.156Z,17.23
2023-02-25T08:26:11.785Z,15.37
2023-02-25T08:28:39.684Z,15.97
2023-02-25T08:31:11.382Z,16.33
2023-02-25T08:33:40.624Z,17.50
2023-02-25T08:36:28.461Z,18.03
2023-02-25T08:38:57.450Z,16.23
2023-02-25T08:41:26.330Z,17.37
2023-02-25T08:43:55.354Z,17.67
2023-02-25T08:46:24.188Z,18.47
2023-02-25T08:48:52.472Z,18.60
2023-02-25T08:51:20.818Z,18.30
2023-02-25T08:53:47.595Z,18.27
2023-02-25T08:56:16.507Z,16.87
2023-02-25T08:58:44.031Z,18.05
2023-02-25T09:01:13.865Z,17.77
2023-02-25T09:03:51.322Z,17.70
2023-02-25T09:06:25.535Z,17.13
2023-02-25T09:08:52.654Z,16.75
2023-02-25T09:11:20.394Z,17.05
2023-02-25T09:13:47.234Z,16.92
2023-02-25T09:16:17.572Z,15.55
2023-02-25T09:18:48.679Z,16.60
2023-02-25T09:21:15.372Z,17.38
2023-02-25T09:23:42.372Z,14.70
2023-02-25T09:26:09.076Z,15.63
2023-02-25T09:28:36.484Z,14.45
2023-02-25T09:31:03.087Z,15.63
2023-02-25T09:33:31.900Z,13.80
2023-02-25T09:36:28.349Z,12.32
2023-02-25T09:38:58.333Z,9.63
2023-02-25T09:41:32.189Z,10.15
2023-02-25T09:44:05.920Z,10.05
2023-02-25T09:46:34.868Z,10.65
2023-02-25T09:49:31.717Z,10.02
2023-02-25T09:52:07.798Z,10.48
2023-02-25T09:54:40.889Z,11.02
2023-02-25T09:57:10.436Z,10.70
2023-02-25T09:59:37.359Z,9.50
2023-02-25T10:02:17.249Z,10.55
2023-02-25T10:04:55.374Z,11.85
2023-02-25T10:07:27.252Z,11.40
2023-02-25T10:10:02.838Z,12.27
2023-02-25T10:12:46.250Z,12.68
2023-02-25T10:15:52.359Z,12.38
2023-02-25T10:18:38.421Z,11.00
2023-02-25T10:21:50.028Z,12.15
2023-02-25T10:24:29.346Z,12.02
2023-02-25T10:27:03.380Z,11.60
2023-02-25T10:29:42.296Z,12.98
2023-02-25T10:32:22.517Z,12.38
2023-02-25T10:34:52.012Z,12.85
2023-02-25T10:37:36.062Z,13.40
2023-02-25T10:40:05.380Z,12.57
2023-02-25T10:42:32.002Z,11.88
2023-02-25T10:45:08.212Z,12.88
2023-02-25T10:47:37.696Z,10.50
2023-02-25T10:50:42.880Z,9.07
2023-02-25T10:53:20.592Z,7.55
2023-02-25T10:55:52.800Z,8.05
2023-02-25T10:58:36.629Z,7.68
2023-02-25T11:01:19.848Z,9.27
2023-02-25T11:03:49.112Z,9.75
2023-02-25T11:06:24.267Z,8.27
2023-02-25T11:08:52.913Z,7.93
2023-02-25T11:11:29.691Z,8.70
2023-02-25T11:14:13.241Z,8.45
2023-02-25T11:16:42.402Z,10.40
2023-02-25T11:19:27.812Z,10.48
2023-02-25T11:21:55.037Z,10.32
2023-02-25T11:24:36.932Z,9.88
2023-02-25T11:27:06.952Z,8.98
2023-02-25T11:29:39.845Z,7.65
2023-02-25T11:32:17.363Z,7.50
2023-02-25T11:34:51.995Z,7.70
2023-02-25T11:37:39.739Z,6.85
2023-02-25T11:40:20.491Z,6.47
2023-02-25T11:43:13.801Z,6.90
2023-02-25T11:45:49.501Z,6.38
2023-02-25T11:48:29.751Z,5.30
2023-02-25T11:51:18.419Z,4.65
2023-02-25T11:54:12.660Z,4.68
2023-02-25T11:56:50.961Z,4.93
2023-02-25T11:59:37.235Z,4.60
2023-02-25T12:02:27.370Z,4.68
2023-02-25T12:05:03.391Z,5.15
2023-02-25T12:08:05.102Z,4.53
2023-02-25T12:11:13.911Z,4.18
2023-02-25T12:14:08.746Z,4.50
2023-02-25T12:16:47.477Z,4.25
2023-02-25T12:19:25.909Z,4.72
2023-02-25T12:22:14.854Z,4.90
2023-02-25T12:25:12.287Z,4.68
2023-02-25T12:27:57.035Z,4.45
2023-02-25T12:30:42.523Z,4.53
2023-02-25T12:33:23.873Z,5.15
2023-02-25T12:36:11.832Z,4.95
2023-02-25T12:38:57.229Z,4.53
2023-02-25T12:41:40.554Z,4.60
2023-02-25T12:44:25.998Z,3.67
2023-02-25T12:47:10.661Z,4.80
2023-02-25T12:49:37.179Z,4.68
2023-02-25T12:52:09.805Z,4.90
2023-02-25T12:54:36.322Z,4.55
2023-02-25T12:57:24.793Z,4.03
2023-02-25T13:00:11.642Z,4.13
2023-02-25T13:02:50.517Z,4.85
2023-02-25T13:05:37.962Z,4.57
2023-02-25T13:08:13.937Z,4.15
2023-02-25T13:11:17.724Z,4.68
2023-02-25T13:14:03.586Z,4.57
2023-02-25T13:16:42.770Z,4.85
2023-02-25T13:19:21.065Z,3.67
2023-02-25T13:22:09.801Z,5.03
2023-02-25T13:25:19.890Z,4.35
2023-02-25T13:27:58.575Z,4.47
2023-02-25T13:30:25.523Z,5.43
2023-02-25T13:33:11.295Z,5.30
2023-02-25T13:35:56.099Z,3.97
2023-02-25T13:38:28.829Z,4.40
2023-02-25T13:41:26.325Z,4.10
2023-02-25T13:44:11.363Z,4.32
2023-02-25T13:49:31.718Z,4.28
2023-02-25T13:52:07.461Z,4.80
2023-02-25T13:54:42.365Z,4.38
2023-02-25T13:57:17.935Z,5.00
2023-02-25T14:00:04.343Z,4.63
2023-02-25T14:03:08.011Z,4.32
2023-02-25T14:05:59.493Z,4.88
2023-02-25T14:09:02.499Z,4.40
2023-02-25T14:11:55.654Z,4.40
2023-02-25T14:17:22.938Z,4.20
2023-02-25T14:20:34.118Z,4.10
2023-02-25T14:23:23.535Z,4.82
2023-02-25T14:26:12.498Z,4.45
2023-02-25T14:29:06.630Z,4.63
2023-02-25T14:31:46.890Z,4.32
2023-02-25T14:34:31.295Z,3.95
2023-02-25T14:37:19.395Z,4.30
2023-02-25T14:40:02.099Z,4.07
2023-02-25T14:42:46.822Z,3.53
2023-02-25T14:45:13.545Z,4.03
2023-02-25T14:48:00.054Z,3.42
2023-02-25T14:50:31.530Z,4.00
2023-02-25T14:53:33.535Z,5.60
2023-02-25T14:56:47.530Z,2.95
2023-02-25T14:59:32.414Z,3.00
2023-02-25T15:02:17.690Z,2.92
2023-02-25T15:05:08.527Z,4.68
2023-02-25T15:07:42.621Z,3.17
2023-02-25T15:10:18.048Z,8.90
2023-02-25T15:13:16.734Z,3.30
2023-02-25T15:16:20.933Z,2.75
2023-02-25T15:19:26.177Z,2.85
2023-02-25T15:22:18.571Z,2.90
2023-02-25T15:24:46.828Z,3.33
2023-02-25T15:27:38.200Z,2.92
2023-02-25T15:30:13.111Z,3.08
2023-02-25T15:33:08.256Z,2.78
2023-02-25T15:35:34.798Z,3.13
2023-02-25T15:38:02.320Z,3.47
2023-02-25T15:40:32.010Z,3.53
2023-02-25T15:43:10.508Z,3.17
2023-02-25T15:45:38.702Z,3.42
2023-02-25T15:48:08.110Z,4.00
2023-02-25T15:50:43.992Z,4.35
2023-02-25T15:53:24.765Z,4.43
2023-02-25T15:55:53.490Z,4.18
2023-02-25T15:58:23.227Z,3.50
2023-02-25T16:00:54.073Z,3.42
2023-02-25T16:03:34.725Z,3.05
2023-02-25T16:06:32.289Z,2.97
2023-02-25T16:09:12.108Z,3.13
2023-02-25T16:11:51.514Z,2.97
2023-02-25T16:14:24.609Z,3.72
2023-02-25T16:16:58.843Z,3.30
2023-02-25T16:19:28.902Z,2.58
2023-02-25T16:22:03.225Z,3.40
2023-02-25T16:24:30.790Z,3.15
2023-02-25T16:27:18.151Z,3.00
2023-02-25T16:30:06.210Z,3.00
2023-02-25T16:32:43.087Z,3.72
2023-02-25T16:35:21.416Z,2.63
2023-02-25T16:38:27.070Z,2.95
2023-02-25T16:40:54.267Z,3.15
2023-02-25T16:43:27.574Z,3.00
2023-02-25T16:45:58.808Z,2.80
2023-02-25T16:48:32.055Z,2.95
2023-02-25T16:51:09.132Z,3.00
2023-02-25T16:53:41.384Z,2.42
2023-02-25T16:56:20.097Z,2.58
2023-02-25T16:58:58.197Z,2.15
2023-02-25T17:01:28.830Z,2.65
2023-02-25T17:04:02.471Z,2.50
2023-02-25T17:06:29.115Z,2.60
2023-02-25T17:08:55.629Z,2.90
2023-02-25T17:11:25.133Z,2.97
2023-02-25T17:13:55.925Z,2.97
2023-02-25T17:16:43.639Z,2.97
2023-02-25T17:19:11.677Z,3.20
2023-02-25T17:21:41.673Z,3.20
2023-02-25T17:24:13.595Z,3.08
2023-02-25T17:26:43.033Z,3.00
2023-02-25T17:29:12.733Z,3.35
2023-02-25T17:31:45.726Z,3.55
2023-02-25T17:34:16.461Z,3.35
2023-02-25T17:36:44.036Z,3.20
2023-02-25T17:39:16.220Z,3.67
2023-02-25T17:41:43.949Z,3.17
2023-02-25T17:44:12.494Z,3.47
2023-02-25T17:46:44.594Z,3.65
2023-02-25T17:49:28.878Z,3.92
2023-02-25T17:51:59.016Z,3.72
2023-02-25T17:54:27.790Z,3.55
2023-02-25T17:57:01.799Z,3.95
2023-02-25T17:59:28.335Z,4.25
2023-02-25T18:02:01.116Z,3.60
2023-02-25T18:04:41.312Z,3.65
2023-02-25T18:07:22.173Z,3.00
2023-02-25T18:09:49.719Z,3.35
2023-02-25T18:12:25.810Z,3.13
2023-02-25T18:14:57.963Z,3.40
2023-02-25T18:17:28.928Z,3.70
2023-02-25T18:19:59.026Z,3.83
2023-02-25T18:22:33.308Z,3.30
2023-02-25T18:25:03.129Z,3.30
2023-02-25T18:27:32.372Z,4.00
2023-02-25T18:30:13.989Z,3.75
2023-02-25T18:32:40.652Z,4.35
2023-02-25T18:35:07.849Z,5.28
2023-02-25T18:37:34.730Z,5.20
2023-02-25T18:40:01.229Z,4.30
2023-02-25T18:42:27.854Z,5.75
2023-02-25T18:44:54.484Z,6.57
2023-02-25T18:47:20.997Z,7.13
2023-02-25T18:49:48.671Z,7.05
2023-02-25T18:52:23.801Z,6.70
2023-02-25T18:54:50.699Z,8.00
2023-02-25T18:57:24.183Z,7.38
2023-02-25T18:59:51.810Z,8.00
2023-02-25T19:02:36.315Z,7.72
2023-02-25T19:05:03.946Z,9.27
2023-02-25T19:07:33.430Z,7.95
2023-02-25T19:10:00.326Z,7.60
2023-02-25T19:12:29.731Z,7.03
2023-02-25T19:15:13.032Z,8.90
2023-02-25T19:17:39.856Z,7.05
2023-02-25T19:20:07.032Z,8.05
2023-02-25T19:22:33.703Z,6.65
2023-02-25T19:25:00.632Z,6.85
2023-02-25T19:27:29.366Z,5.60
2023-02-25T19:29:58.941Z,5.20
2023-02-25T19:32:26.613Z,5.40
2023-02-25T19:34:53.331Z,5.22
2023-02-25T19:37:20.598Z,5.28
2023-02-25T19:39:47.211Z,5.60
2023-02-25T19:42:14.026Z,5.15
2023-02-25T19:44:40.627Z,6.10
2023-02-25T19:47:08.045Z,4.75
2023-02-25T19:49:34.546Z,4.57
2023-02-25T19:52:01.215Z,5.75
2023-02-25T19:54:27.730Z,5.45
2023-02-25T19:56:54.255Z,5.65
2023-02-25T19:59:21.251Z,7.35
2023-02-25T20:01:47.853Z,5.28
2023-02-25T20:04:14.482Z,6.00
2023-02-25T20:06:41.066Z,4.60
2023-02-25T20:09:09.722Z,4.72
2023-02-25T20:11:36.730Z,3.55
2023-02-25T20:14:05.056Z,4.25
2023-02-25T20:16:32.884Z,3.40
2023-02-25T20:18:59.543Z,2.90
2023-02-25T20:21:27.397Z,2.90
2023-02-25T20:23:54.038Z,2.55
2023-02-25T20:26:23.104Z,3.22
2023-02-25T20:28:53.011Z,2.75
2023-02-25T20:31:20.399Z,2.75
2023-02-25T20:33:49.970Z,3.05
2023-02-25T20:36:22.681Z,2.40
2023-02-25T20:39:14.035Z,2.72
2023-02-25T20:41:44.856Z,2.60
2023-02-25T20:44:12.418Z,2.65
2023-02-25T20:46:40.714Z,2.17
2023-02-25T20:49:08.230Z,2.78
2023-02-25T20:51:34.985Z,2.20
2023-02-25T20:54:03.867Z,2.92
2023-02-25T20:56:33.406Z,2.72
2023-02-25T20:59:00.013Z,2.20
2023-02-25T21:01:26.620Z,2.30
2023-02-25T21:03:53.460Z,2.83
2023-02-25T21:06:23.911Z,2.60
2023-02-25T21:08:51.724Z,1.65
2023-02-25T21:11:20.125Z,2.38
2023-02-25T21:13:47.688Z,2.75
2023-02-25T21:16:17.016Z,2.65
2023-02-25T21:18:45.172Z,2.90
2023-02-25T21:21:13.902Z,3.10
2023-02-25T21:23:42.155Z,2.72
2023-02-25T21:26:11.048Z,2.83
2023-02-25T21:28:38.684Z,2.40
2023-02-25T21:31:09.188Z,2.42
2023-02-25T21:33:37.565Z,2.30
2023-02-25T21:36:06.724Z,2.63
2023-02-25T21:38:33.839Z,2.25
2023-02-25T21:41:09.699Z,2.40
2023-02-25T21:43:37.863Z,2.65
2023-02-25T21:46:07.686Z,2.72
2023-02-25T21:48:35.816Z,1.80
2023-02-25T21:51:02.411Z,2.72
2023-02-25T21:53:29.001Z,2.63
2023-02-25T21:55:56.830Z,3.13
2023-02-25T21:58:23.845Z,2.70
2023-02-25T22:00:50.677Z,2.30
2023-02-25T22:03:17.775Z,2.75
2023-02-25T22:05:46.496Z,2.90
2023-02-25T22:08:14.072Z,2.78
2023-02-25T22:10:41.032Z,2.53
2023-02-25T22:13:08.670Z,2.80
2023-02-25T22:15:35.494Z,2.90
2023-02-25T22:18:02.194Z,2.72
2023-02-25T22:20:28.861Z,2.92
2023-02-25T22:22:58.032Z,2.50
2023-02-25T22:25:24.890Z,3.00
2023-02-25T22:27:52.189Z,3.15
2023-02-25T22:30:19.188Z,3.17
2023-02-25T22:32:45.767Z,3.75
2023-02-25T22:35:12.392Z,2.63
2023-02-25T22:37:39.720Z,2.47
2023-02-25T22:40:06.857Z,3.10
2023-02-25T22:42:33.436Z,3.38
2023-02-25T22:44:59.946Z,3.70
2023-02-25T22:47:26.512Z,3.97
2023-02-25T22:49:53.135Z,3.55
2023-02-25T22:52:19.710Z,3.63
2023-02-25T22:54:46.517Z,3.80
2023-02-25T22:57:13.092Z,3.28
2023-02-25T22:59:39.893Z,3.80
2023-02-25T23:02:06.481Z,3.65
2023-02-25T23:04:33.357Z,3.63
2023-02-25T23:07:01.188Z,3.80
2023-02-25T23:09:27.975Z,4.50
2023-02-25T23:11:55.314Z,3.80
2023-02-25T23:14:21.866Z,3.92
2023-02-25T23:16:48.507Z,3.85
2023-02-25T23:19:17.190Z,3.85
2023-02-25T23:21:44.689Z,3.72
2023-02-25T23:24:19.615Z,3.97
2023-02-25T23:26:47.863Z,4.57
2023-02-25T23:29:14.462Z,4.55
2023-02-25T23:31:47.175Z,4.68
2023-02-25T23:34:21.667Z,5.05
2023-02-25T23:36:49.050Z,4.95
2023-02-25T23:39:16.106Z,3.95
2023-02-25T23:41:43.688Z,4.35
2023-02-25T23:44:13.347Z,4.90
2023-02-25T23:46:43.457Z,4.45
2023-02-25T23:49:13.710Z,4.45
2023-02-25T23:51:45.914Z,4.22
2023-02-25T23:54:15.627Z,4.55
2023-02-25T23:56:42.589Z,4.30
2023-02-25T23:59:10.535Z,4.40
